createdAt,value
2018-08-25T00:00:06.941Z,17.17
2018-08-25T00:02:36.899Z,17.16
2018-08-25T00:05:11.987Z,17.15
2018-08-25T00:07:51.382Z,17.10
2018-08-25T00:10:21.240Z,17.08
2018-08-25T00:12:51.396Z,17.11
2018-08-25T00:15:21.222Z,17.16
2018-08-25T00:17:54.241Z,17.18
2018-08-25T00:20:24.039Z,17.21
2018-08-25T00:22:55.301Z,17.21
2018-08-25T00:25:25.227Z,17.22
2018-08-25T00:27:56.979Z,17.22
2018-08-25T00:30:31.641Z,17.22
2018-08-25T00:33:01.780Z,17.17
2018-08-25T00:35:32.678Z,17.19
2018-08-25T00:38:02.555Z,17.28
2018-08-25T00:40:32.238Z,17.32
2018-08-25T00:43:02.259Z,17.31
2018-08-25T00:45:34.207Z,17.29
2018-08-25T00:48:04.158Z,17.32
2018-08-25T00:50:34.299Z,17.36
2018-08-25T00:53:04.220Z,17.35
2018-08-25T00:55:38.280Z,17.35
2018-08-25T00:58:08.619Z,17.33
2018-08-25T01:00:38.699Z,17.40
2018-08-25T01:03:08.599Z,17.37
2018-08-25T01:05:49.799Z,17.36
2018-08-25T01:08:20.046Z,17.42
2018-08-25T01:10:50.221Z,17.46
2018-08-25T01:13:25.079Z,17.38
2018-08-25T01:15:55.078Z,17.35
2018-08-25T01:18:25.538Z,17.37
2018-08-25T01:20:55.218Z,17.34
2018-08-25T01:23:25.218Z,17.34
2018-08-25T01:25:55.005Z,17.33
2018-08-25T01:28:25.006Z,17.21
2018-08-25T01:30:55.318Z,17.23
2018-08-25T01:33:25.037Z,17.21
2018-08-25T01:35:55.347Z,17.19
2018-08-25T01:38:25.481Z,17.20
2018-08-25T01:40:55.206Z,17.20
2018-08-25T01:43:26.605Z,17.19
2018-08-25T01:45:56.998Z,17.20
2018-08-25T01:48:26.825Z,17.21
2018-08-25T01:50:56.518Z,17.18
2018-08-25T01:53:26.397Z,17.16
2018-08-25T01:55:56.085Z,17.15
2018-08-25T01:58:25.997Z,17.14
2018-08-25T02:00:57.898Z,17.14
2018-08-25T02:03:30.563Z,17.14
2018-08-25T02:06:00.498Z,17.13
2018-08-25T02:08:30.317Z,17.11
2018-08-25T02:11:00.097Z,17.09
2018-08-25T02:13:29.957Z,17.09
2018-08-25T02:16:01.097Z,17.12
2018-08-25T02:18:31.017Z,17.14
2018-08-25T02:21:00.677Z,17.14
2018-08-25T02:23:30.437Z,17.14
2018-08-25T02:26:03.277Z,17.12
2018-08-25T02:28:33.198Z,17.16
2018-08-25T02:31:02.897Z,17.16
2018-08-25T02:33:33.117Z,17.18
2018-08-25T02:36:05.082Z,17.20
2018-08-25T02:38:35.470Z,17.20
2018-08-25T02:41:05.837Z,17.23
2018-08-25T02:43:38.543Z,17.23
2018-08-25T02:46:09.177Z,17.24
2018-08-25T02:48:39.137Z,17.24
2018-08-25T02:51:09.137Z,17.26
2018-08-25T02:53:39.018Z,17.24
2018-08-25T02:56:11.778Z,17.20
2018-08-25T02:58:42.013Z,17.22
2018-08-25T03:01:11.875Z,17.20
2018-08-25T03:03:49.358Z,17.22
2018-08-25T03:06:19.078Z,17.24
2018-08-25T03:08:48.939Z,17.25
2018-08-25T03:11:18.598Z,17.25
2018-08-25T03:13:58.105Z,17.22
2018-08-25T03:16:27.918Z,17.23
2018-08-25T03:18:57.842Z,17.27
2018-08-25T03:21:28.486Z,17.30
2018-08-25T03:23:58.598Z,17.27
2018-08-25T03:26:28.358Z,17.28
2018-08-25T03:28:58.718Z,17.24
2018-08-25T03:31:28.907Z,17.27
2018-08-25T03:34:06.598Z,17.33
2018-08-25T03:36:36.439Z,17.29
2018-08-25T03:39:09.758Z,17.33
2018-08-25T03:41:42.538Z,17.29
2018-08-25T03:44:12.921Z,17.20
2018-08-25T03:46:43.088Z,17.24
2018-08-25T03:49:12.940Z,17.27
2018-08-25T03:51:42.920Z,17.28
2018-08-25T03:54:12.987Z,17.29
2018-08-25T03:56:42.760Z,17.29
2018-08-25T03:59:14.103Z,17.23
2018-08-25T04:01:43.917Z,17.19
2018-08-25T04:04:16.479Z,17.18
2018-08-25T04:06:46.340Z,17.17
2018-08-25T04:09:17.867Z,17.15
2018-08-25T04:11:59.020Z,17.15
2018-08-25T04:14:28.787Z,17.17
2018-08-25T04:16:59.504Z,17.20
2018-08-25T04:19:43.208Z,17.18
2018-08-25T04:22:13.658Z,17.16
2018-08-25T04:24:43.447Z,17.20
2018-08-25T04:27:13.280Z,17.20
2018-08-25T04:29:42.901Z,17.17
2018-08-25T04:32:13.021Z,17.18
2018-08-25T04:34:42.780Z,17.22
2018-08-25T04:37:12.673Z,17.24
2018-08-25T04:39:46.761Z,17.19
2018-08-25T04:42:16.747Z,17.10
2018-08-25T04:44:46.460Z,17.04
2018-08-25T04:47:16.383Z,17.01
2018-08-25T04:49:46.640Z,17.04
2018-08-25T04:52:16.840Z,17.05
2018-08-25T04:54:47.240Z,17.09
2018-08-25T04:57:17.075Z,17.03
2018-08-25T04:59:49.240Z,17.01
2018-08-25T05:02:19.121Z,17.05
2018-08-25T05:04:49.020Z,17.00
2018-08-25T05:07:20.460Z,17.05
2018-08-25T05:09:51.720Z,17.04
2018-08-25T05:12:22.402Z,17.02
2018-08-25T05:14:52.802Z,17.02
2018-08-25T05:17:26.379Z,17.07
2018-08-25T05:20:03.162Z,16.93
2018-08-25T05:22:32.921Z,16.87
2018-08-25T05:25:02.640Z,16.79
2018-08-25T05:27:32.400Z,16.78
2018-08-25T05:30:02.541Z,16.75
2018-08-25T05:32:32.360Z,16.84
2018-08-25T05:35:02.143Z,16.81
2018-08-25T05:37:54.906Z,16.74
2018-08-25T05:40:25.240Z,16.67
2018-08-25T05:42:55.262Z,16.73
2018-08-25T05:45:25.703Z,16.77
2018-08-25T05:47:58.292Z,16.75
2018-08-25T05:50:28.078Z,16.74
2018-08-25T05:52:58.011Z,16.81
2018-08-25T05:55:27.989Z,16.86
2018-08-25T05:57:58.211Z,16.91
2018-08-25T06:00:27.983Z,16.90
2018-08-25T06:02:57.807Z,16.88
2018-08-25T06:05:28.182Z,16.80
2018-08-25T06:07:58.372Z,16.83
2018-08-25T06:10:28.442Z,16.82
2018-08-25T06:12:58.493Z,16.84
2018-08-25T06:15:28.338Z,16.86
2018-08-25T06:17:58.682Z,16.82
2018-08-25T06:20:28.496Z,16.80
2018-08-25T06:22:58.541Z,16.74
2018-08-25T06:25:28.274Z,16.73
2018-08-25T06:27:58.532Z,16.68
2018-08-25T06:30:28.407Z,16.76
2018-08-25T06:32:58.123Z,16.84
2018-08-25T06:35:29.476Z,16.82
2018-08-25T06:38:00.717Z,16.77
2018-08-25T06:40:31.215Z,16.82
2018-08-25T06:43:00.994Z,16.93
2018-08-25T06:45:30.657Z,16.89
2018-08-25T06:48:00.415Z,16.87
2018-08-25T06:50:30.275Z,16.86
2018-08-25T06:53:00.061Z,16.90
2018-08-25T06:55:29.816Z,16.96
2018-08-25T06:57:59.643Z,17.00
2018-08-25T07:00:29.319Z,16.87
2018-08-25T07:02:59.073Z,16.88
2018-08-25T07:05:28.845Z,16.97
2018-08-25T07:07:59.234Z,16.98
2018-08-25T07:10:28.962Z,16.98
2018-08-25T07:12:58.852Z,16.94
2018-08-25T07:15:28.615Z,16.96
2018-08-25T07:17:58.433Z,16.93
2018-08-25T07:20:28.038Z,16.83
2018-08-25T07:22:57.795Z,16.86
2018-08-25T07:25:27.555Z,16.85
2018-08-25T07:27:58.435Z,16.76
2018-08-25T07:30:28.128Z,16.71
2018-08-25T07:32:59.103Z,16.68
2018-08-25T07:35:28.803Z,16.67
2018-08-25T07:37:58.507Z,16.68
2018-08-25T07:40:28.366Z,16.73
2018-08-25T07:42:59.006Z,16.73
2018-08-25T07:45:28.924Z,16.73
2018-08-25T07:47:58.617Z,16.73
2018-08-25T07:50:28.467Z,16.70
2018-08-25T07:52:58.480Z,16.67
2018-08-25T07:55:28.598Z,16.70
2018-08-25T07:57:58.300Z,16.76
2018-08-25T08:00:28.090Z,16.78
2018-08-25T08:02:59.001Z,16.81
2018-08-25T08:05:28.854Z,16.83
2018-08-25T08:07:58.604Z,16.88
2018-08-25T08:10:28.445Z,16.91
2018-08-25T08:12:58.768Z,16.92
2018-08-25T08:15:28.781Z,16.99
2018-08-25T08:17:58.420Z,17.03
2018-08-25T08:20:28.860Z,16.93
2018-08-25T08:22:58.781Z,17.08
2018-08-25T08:25:28.651Z,17.13
2018-08-25T08:27:58.181Z,17.10
2018-08-25T08:30:28.013Z,17.16
2018-08-25T08:32:57.787Z,17.26
2018-08-25T08:35:27.658Z,17.28
2018-08-25T08:37:57.492Z,17.27
2018-08-25T08:40:27.432Z,17.19
2018-08-25T08:42:57.155Z,17.19
2018-08-25T08:45:26.954Z,17.21
2018-08-25T08:47:56.751Z,17.14
2018-08-25T08:50:26.953Z,17.17
2018-08-25T08:52:56.825Z,17.23
2018-08-25T08:55:26.611Z,17.23
2018-08-25T08:57:56.344Z,17.18
2018-08-25T09:00:26.193Z,17.13
2018-08-25T09:02:55.948Z,17.20
2018-08-25T09:05:25.817Z,17.12
2018-08-25T09:08:07.610Z,17.08
2018-08-25T09:10:43.801Z,16.97
2018-08-25T09:13:14.496Z,16.87
2018-08-25T09:15:45.324Z,16.91
2018-08-25T09:18:15.717Z,16.98
2018-08-25T09:20:45.796Z,16.99
2018-08-25T09:23:15.603Z,16.97
2018-08-25T09:25:45.849Z,17.00
2018-08-25T09:28:16.136Z,17.01
2018-08-25T09:30:45.892Z,17.03
2018-08-25T09:33:15.584Z,17.04
2018-08-25T09:35:45.406Z,16.95
2018-08-25T09:38:15.204Z,16.88
2018-08-25T09:40:44.985Z,16.85
2018-08-25T09:43:14.665Z,16.81
2018-08-25T09:45:44.450Z,16.86
2018-08-25T09:48:14.175Z,16.88
2018-08-25T09:50:43.908Z,16.94
2018-08-25T09:53:13.667Z,16.91
2018-08-25T09:55:43.627Z,16.94
2018-08-25T09:58:13.572Z,16.97
2018-08-25T10:00:43.565Z,16.92
2018-08-25T10:03:13.325Z,16.88
2018-08-25T10:05:44.458Z,16.97
2018-08-25T10:08:14.325Z,17.18
2018-08-25T10:10:44.204Z,17.21
2018-08-25T10:13:14.034Z,17.20
2018-08-25T10:15:43.892Z,17.23
2018-08-25T10:18:13.616Z,17.09
2018-08-25T10:20:43.600Z,17.15
2018-08-25T10:23:13.457Z,17.24
2018-08-25T10:25:43.320Z,17.00
2018-08-25T10:28:13.168Z,17.08
2018-08-25T10:30:42.962Z,17.05
2018-08-25T10:33:12.749Z,16.91
2018-08-25T10:35:42.666Z,16.86
2018-08-25T10:38:12.368Z,16.83
2018-08-25T10:40:42.141Z,16.80
2018-08-25T10:43:11.788Z,16.83
2018-08-25T10:45:41.620Z,16.80
2018-08-25T10:48:11.443Z,16.93
2018-08-25T10:50:41.227Z,17.05
2018-08-25T10:53:10.880Z,17.11
2018-08-25T10:55:40.889Z,17.11
2018-08-25T10:58:10.622Z,17.03
2018-08-25T11:00:40.565Z,16.88
2018-08-25T11:03:10.318Z,16.85
2018-08-25T11:05:40.324Z,16.96
2018-08-25T11:08:10.076Z,16.94
2018-08-25T11:10:39.857Z,16.87
2018-08-25T11:13:09.733Z,16.96
2018-08-25T11:15:39.539Z,16.91
2018-08-25T11:18:09.338Z,16.79
2018-08-25T11:20:39.017Z,16.82
2018-08-25T11:23:08.700Z,16.96
2018-08-25T11:25:38.517Z,16.96
2018-08-25T11:28:08.330Z,16.94
2018-08-25T11:30:38.105Z,16.88
2018-08-25T11:33:08.417Z,16.80
2018-08-25T11:35:38.294Z,16.74
2018-08-25T11:38:08.098Z,16.70
2018-08-25T11:40:37.963Z,16.66
2018-08-25T11:43:07.753Z,16.71
2018-08-25T11:45:37.524Z,16.80
2018-08-25T11:48:07.251Z,16.82
2018-08-25T11:50:37.044Z,16.85
2018-08-25T11:53:07.306Z,16.88
2018-08-25T11:55:37.200Z,16.78
2018-08-25T11:58:06.918Z,16.83
2018-08-25T12:00:36.759Z,16.98
2018-08-25T12:03:07.027Z,16.79
2018-08-25T12:05:36.709Z,16.73
2018-08-25T12:08:06.429Z,16.70
2018-08-25T12:10:36.249Z,16.73
2018-08-25T12:13:06.217Z,16.68
2018-08-25T12:15:36.013Z,16.65
2018-08-25T12:18:05.769Z,16.67
2018-08-25T12:20:35.712Z,16.73
2018-08-25T12:23:05.717Z,16.83
2018-08-25T12:25:35.479Z,17.01
2018-08-25T12:28:05.107Z,17.13
2018-08-25T12:30:34.844Z,17.24
2018-08-25T12:33:04.587Z,17.41
2018-08-25T12:35:34.427Z,17.34
2018-08-25T12:38:04.220Z,17.22
2018-08-25T12:40:34.180Z,17.30
2018-08-25T12:43:03.966Z,17.37
2018-08-25T12:45:33.917Z,17.33
2018-08-25T12:48:03.556Z,17.39
2018-08-25T12:50:33.437Z,17.26
2018-08-25T12:53:03.278Z,17.32
2018-08-25T12:55:34.420Z,17.25
2018-08-25T12:58:04.210Z,17.26
2018-08-25T13:00:34.109Z,17.31
2018-08-25T13:03:03.615Z,17.33
2018-08-25T13:05:33.068Z,17.34
2018-08-25T13:08:02.908Z,17.36
2018-08-25T13:10:33.958Z,17.40
2018-08-25T13:13:03.941Z,17.33
2018-08-25T13:15:33.425Z,17.15
2018-08-25T13:18:03.097Z,17.08
2018-08-25T13:20:32.530Z,17.18
2018-08-25T13:23:01.895Z,17.09
2018-08-25T13:25:31.815Z,17.08
2018-08-25T13:28:01.337Z,17.03
2018-08-25T13:30:30.893Z,17.00
2018-08-25T13:33:01.008Z,17.01
2018-08-25T13:35:30.595Z,17.07
2018-08-25T13:38:00.279Z,17.11
2018-08-25T13:40:29.773Z,17.18
2018-08-25T13:42:59.727Z,17.40
2018-08-25T13:45:29.258Z,17.49
2018-08-25T13:47:59.426Z,17.59
2018-08-25T13:50:28.901Z,17.64
2018-08-25T13:52:58.647Z,17.62
2018-08-25T13:55:28.197Z,17.59
2018-08-25T13:57:57.770Z,17.65
2018-08-25T14:00:27.228Z,17.63
2018-08-25T14:02:57.477Z,17.43
2018-08-25T14:05:27.232Z,17.49
2018-08-25T14:07:56.990Z,17.38
2018-08-25T14:10:26.359Z,17.34
2018-08-25T14:12:56.590Z,17.29
2018-08-25T14:15:26.037Z,17.17
2018-08-25T14:17:56.333Z,17.15
2018-08-25T14:20:26.667Z,17.02
2018-08-25T14:22:56.904Z,16.98
2018-08-25T14:25:26.261Z,16.91
2018-08-25T14:27:56.226Z,16.91
2018-08-25T14:30:25.669Z,16.87
2018-08-25T14:32:57.898Z,16.83
2018-08-25T14:35:27.812Z,16.77
2018-08-25T14:38:03.002Z,16.66
2018-08-25T14:40:35.565Z,16.51
2018-08-25T14:43:05.463Z,16.43
2018-08-25T14:45:35.526Z,16.31
2018-08-25T14:48:05.140Z,16.38
2018-08-25T14:50:34.794Z,16.38
2018-08-25T14:53:04.599Z,16.42
2018-08-25T14:55:33.885Z,16.37
2018-08-25T14:58:04.309Z,16.34
2018-08-25T15:00:34.071Z,16.47
2018-08-25T15:03:05.270Z,16.48
2018-08-25T15:05:35.553Z,16.38
2018-08-25T15:08:05.845Z,16.30
2018-08-25T15:10:35.273Z,16.27
2018-08-25T15:13:04.911Z,16.23
2018-08-25T15:15:34.211Z,16.25
2018-08-25T15:18:03.470Z,16.29
2018-08-25T15:20:32.826Z,16.17
2018-08-25T15:23:02.086Z,15.92
2018-08-25T15:25:31.422Z,15.87
2018-08-25T15:28:00.762Z,15.68
2018-08-25T15:30:29.932Z,15.51
2018-08-25T15:33:00.203Z,15.49
2018-08-25T15:35:29.542Z,15.42
2018-08-25T15:37:58.772Z,15.44
2018-08-25T15:40:28.558Z,15.42
2018-08-25T15:42:57.971Z,15.32
2018-08-25T15:45:28.462Z,15.24
2018-08-25T15:47:57.952Z,15.11
2018-08-25T15:50:27.527Z,15.07
2018-08-25T15:52:56.907Z,15.02
2018-08-25T15:55:26.508Z,14.96
2018-08-25T15:57:56.114Z,14.91
2018-08-25T16:00:25.393Z,14.90
2018-08-25T16:02:54.633Z,14.79
2018-08-25T16:05:24.076Z,14.78
2018-08-25T16:07:53.677Z,14.73
2018-08-25T16:10:23.272Z,14.56
2018-08-25T16:12:52.428Z,14.58
2018-08-25T16:15:21.729Z,14.53
2018-08-25T16:17:50.877Z,14.54
2018-08-25T16:20:20.245Z,14.43
2018-08-25T16:22:49.465Z,14.39
2018-08-25T16:25:19.269Z,14.35
2018-08-25T16:27:48.609Z,14.26
2018-08-25T16:30:18.313Z,14.33
2018-08-25T16:32:47.924Z,14.26
2018-08-25T16:35:18.856Z,14.22
2018-08-25T16:37:48.043Z,14.26
2018-08-25T16:40:17.929Z,14.18
2018-08-25T16:42:47.253Z,14.06
2018-08-25T16:45:18.521Z,14.07
2018-08-25T16:47:48.025Z,14.05
2018-08-25T16:50:17.561Z,13.91
2018-08-25T16:52:46.961Z,13.91
2018-08-25T16:55:16.573Z,13.86
2018-08-25T16:57:46.032Z,13.79
2018-08-25T17:00:16.190Z,13.80
2018-08-25T17:02:45.787Z,13.71
2018-08-25T17:05:15.787Z,13.81
2018-08-25T17:07:45.219Z,13.80
2018-08-25T17:10:14.746Z,13.77
2018-08-25T17:12:44.216Z,13.72
2018-08-25T17:15:13.830Z,13.70
2018-08-25T17:17:43.263Z,13.67
2018-08-25T17:20:12.823Z,13.76
2018-08-25T17:22:42.423Z,13.80
2018-08-25T17:25:11.965Z,13.74
2018-08-25T17:27:41.862Z,13.76
2018-08-25T17:30:11.516Z,13.77
2018-08-25T17:32:41.167Z,13.80
2018-08-25T17:35:10.685Z,13.80
2018-08-25T17:37:40.125Z,13.75
2018-08-25T17:40:09.771Z,13.72
2018-08-25T17:42:39.365Z,13.78
2018-08-25T17:45:09.374Z,13.79
2018-08-25T17:47:38.845Z,13.81
2018-08-25T17:50:08.500Z,13.80
2018-08-25T17:52:38.169Z,13.74
2018-08-25T17:55:07.815Z,13.77
2018-08-25T17:57:37.483Z,13.75
2018-08-25T18:00:08.559Z,13.77
2018-08-25T18:02:38.028Z,13.77
2018-08-25T18:05:08.428Z,13.76
2018-08-25T18:07:39.122Z,13.79
2018-08-25T18:10:08.848Z,13.80
2018-08-25T18:12:38.409Z,13.77
2018-08-25T18:15:09.158Z,13.81
2018-08-25T18:17:39.339Z,13.83
2018-08-25T18:20:08.755Z,13.86
2018-08-25T18:22:38.233Z,13.83
2018-08-25T18:25:07.848Z,13.77
2018-08-25T18:27:37.366Z,13.77
2018-08-25T18:30:07.524Z,13.80
2018-08-25T18:32:37.075Z,13.80
2018-08-25T18:35:06.833Z,13.79
2018-08-25T18:37:36.452Z,13.72
2018-08-25T18:40:06.015Z,13.80
2018-08-25T18:42:35.488Z,13.81
2018-08-25T18:45:05.134Z,13.82
2018-08-25T18:47:34.698Z,13.82
2018-08-25T18:50:04.309Z,13.80
2018-08-25T18:52:33.806Z,13.82
2018-08-25T18:55:03.556Z,13.83
2018-08-25T18:57:33.093Z,13.82
2018-08-25T19:00:02.526Z,13.83
2018-08-25T19:02:32.114Z,13.85
2018-08-25T19:05:01.788Z,13.83
2018-08-25T19:07:31.353Z,13.82
2018-08-25T19:10:01.176Z,13.81
2018-08-25T19:12:30.927Z,13.84
2018-08-25T19:15:00.465Z,13.86
2018-08-25T19:17:29.885Z,13.82
2018-08-25T19:19:59.517Z,13.80
2018-08-25T19:22:28.926Z,13.85
2018-08-25T19:24:58.597Z,13.90
2018-08-25T19:27:28.206Z,13.97
2018-08-25T19:29:57.788Z,13.96
2018-08-25T19:32:27.234Z,14.00
2018-08-25T19:34:56.960Z,14.01
2018-08-25T19:37:26.360Z,14.02
2018-08-25T19:39:55.995Z,13.98
2018-08-25T19:42:25.494Z,13.95
2018-08-25T19:44:55.068Z,13.89
2018-08-25T19:47:24.589Z,13.87
2018-08-25T19:49:54.684Z,13.90
2018-08-25T19:52:24.315Z,13.92
2018-08-25T19:54:54.046Z,13.93
2018-08-25T19:57:23.776Z,13.92
2018-08-25T19:59:53.473Z,13.87
2018-08-25T20:02:23.575Z,13.69
2018-08-25T20:04:53.165Z,13.77
2018-08-25T20:07:22.818Z,13.73
2018-08-25T20:09:52.531Z,13.68
2018-08-25T20:12:21.943Z,13.62
2018-08-25T20:14:51.572Z,13.52
2018-08-25T20:17:21.643Z,13.50
2018-08-25T20:19:51.263Z,13.57
2018-08-25T20:22:20.911Z,13.50
2018-08-25T20:24:50.451Z,13.43
2018-08-25T20:27:19.971Z,13.38
2018-08-25T20:29:49.523Z,13.42
2018-08-25T20:32:19.059Z,13.49
2018-08-25T20:34:48.529Z,13.38
2018-08-25T20:37:18.042Z,13.32
2018-08-25T20:39:47.791Z,13.13
2018-08-25T20:42:17.429Z,13.06
2018-08-25T20:44:46.948Z,13.03
2018-08-25T20:47:16.528Z,13.03
2018-08-25T20:49:46.867Z,13.05
2018-08-25T20:52:16.362Z,12.95
2018-08-25T20:54:47.353Z,13.00
2018-08-25T20:57:16.890Z,13.00
2018-08-25T20:59:46.731Z,12.98
2018-08-25T21:02:16.810Z,12.93
2018-08-25T21:04:47.180Z,12.96
2018-08-25T21:07:16.866Z,12.88
2018-08-25T21:09:46.396Z,12.94
2018-08-25T21:12:15.932Z,12.96
2018-08-25T21:14:45.822Z,12.92
2018-08-25T21:17:15.606Z,12.88
2018-08-25T21:19:45.064Z,12.87
2018-08-25T21:22:15.280Z,12.84
2018-08-25T21:24:44.716Z,12.88
2018-08-25T21:27:14.295Z,12.84
2018-08-25T21:29:43.804Z,12.79
2018-08-25T21:32:13.316Z,12.87
2018-08-25T21:34:42.748Z,12.84
2018-08-25T21:37:12.570Z,12.84
2018-08-25T21:39:42.103Z,12.86
2018-08-25T21:42:11.519Z,12.95
2018-08-25T21:44:40.900Z,12.95
2018-08-25T21:47:11.262Z,12.99
2018-08-25T21:49:40.854Z,12.93
2018-08-25T21:52:10.382Z,12.98
2018-08-25T21:54:39.814Z,12.99
2018-08-25T21:57:09.361Z,13.04
2018-08-25T21:59:38.842Z,13.02
2018-08-25T22:02:09.218Z,12.97
2018-08-25T22:04:39.026Z,13.00
2018-08-25T22:07:08.929Z,12.95
2018-08-25T22:09:38.569Z,12.95
2018-08-25T22:12:08.321Z,12.95
2018-08-25T22:14:37.724Z,12.96
2018-08-25T22:17:07.965Z,12.91
2018-08-25T22:19:37.482Z,12.81
2018-08-25T22:22:07.242Z,12.87
2018-08-25T22:24:36.729Z,12.85
2018-08-25T22:27:06.326Z,12.84
2018-08-25T22:29:35.682Z,12.88
2018-08-25T22:32:05.331Z,12.87
2018-08-25T22:34:34.772Z,12.88
2018-08-25T22:37:04.194Z,12.92
2018-08-25T22:39:33.593Z,12.95
2018-08-25T22:42:03.097Z,12.87
2018-08-25T22:44:32.509Z,12.77
2018-08-25T22:47:01.951Z,12.78
2018-08-25T22:49:32.379Z,12.81
2018-08-25T22:52:01.933Z,12.78
2018-08-25T22:54:31.454Z,12.77
2018-08-25T22:57:01.099Z,12.77
2018-08-25T22:59:30.504Z,12.79
2018-08-25T23:02:00.031Z,12.77
2018-08-25T23:04:29.426Z,12.75
2018-08-25T23:06:58.991Z,12.72
2018-08-25T23:09:28.452Z,12.66
2018-08-25T23:11:57.969Z,12.61
2018-08-25T23:14:27.464Z,12.60
2018-08-25T23:16:58.112Z,12.62
2018-08-25T23:19:27.544Z,12.63
2018-08-25T23:21:56.985Z,12.55
2018-08-25T23:24:26.445Z,12.55
2018-08-25T23:26:55.845Z,12.59
2018-08-25T23:29:25.312Z,12.60
2018-08-25T23:31:54.793Z,12.56
2018-08-25T23:34:24.213Z,12.54
2018-08-25T23:36:53.705Z,12.52
2018-08-25T23:39:23.145Z,12.41
2018-08-25T23:41:52.667Z,12.38
2018-08-25T23:44:22.165Z,12.35
2018-08-25T23:46:51.780Z,12.34
2018-08-25T23:49:21.245Z,12.36
2018-08-25T23:51:51.165Z,12.36
2018-08-25T23:54:20.933Z,12.32
2018-08-25T23:56:50.374Z,12.32
2018-08-25T23:59:19.910Z,12.31
